createdAt,value
2018-12-05T00:39:26.704Z,6.30
2018-12-05T00:44:51.201Z,6.70
2018-12-05T00:47:36.105Z,6.80
2018-12-05T01:25:18.135Z,8.60
2018-12-05T01:27:57.172Z,8.97
2018-12-05T01:30:32.864Z,8.90
2018-12-05T01:33:10.880Z,8.83
2018-12-05T01:38:42.199Z,9.93
2018-12-05T01:41:20.899Z,9.90
2018-12-05T01:46:55.956Z,14.37
2018-12-05T01:52:22.825Z,17.03
2018-12-05T01:55:00.242Z,18.67
2018-12-05T02:00:25.115Z,14.00
2018-12-05T02:05:47.627Z,11.87
2018-12-05T02:08:30.924Z,11.37
2018-12-05T02:11:12.827Z,10.57
2018-12-05T02:16:53.520Z,10.13
2018-12-05T02:19:41.278Z,9.27
2018-12-05T02:22:24.631Z,8.67
2018-12-05T02:25:01.016Z,8.90
2018-12-05T02:27:45.350Z,9.30
2018-12-05T02:45:00.304Z,9.43
2018-12-05T02:47:39.017Z,9.43
2018-12-05T02:50:17.426Z,9.70
2018-12-05T02:52:58.945Z,9.83
2018-12-05T02:55:35.806Z,10.13
2018-12-05T02:58:14.139Z,10.17
2018-12-05T03:00:55.709Z,11.10
2018-12-05T03:03:31.717Z,11.07
2018-12-05T03:06:15.989Z,10.70
2018-12-05T03:08:52.253Z,11.17
2018-12-05T03:11:30.470Z,11.40
2018-12-05T03:14:04.552Z,12.03
2018-12-05T03:16:41.325Z,11.73
2018-12-05T03:19:17.840Z,11.60
2018-12-05T03:21:56.244Z,11.70
2018-12-05T03:24:36.719Z,11.90
2018-12-05T03:27:15.264Z,12.53
2018-12-05T03:29:52.093Z,13.40
2018-12-05T03:32:34.576Z,12.83
2018-12-05T03:38:13.049Z,13.07
2018-12-05T03:40:58.866Z,12.30
2018-12-05T04:12:58.219Z,11.67
2018-12-05T04:15:39.377Z,10.83
2018-12-05T04:18:19.611Z,10.37
2018-12-05T04:20:56.887Z,10.63
2018-12-05T04:23:35.868Z,11.50
2018-12-05T04:26:14.513Z,10.80
2018-12-05T04:28:54.638Z,10.87
2018-12-05T04:31:34.217Z,11.03
2018-12-05T04:34:12.585Z,11.70
2018-12-05T04:36:49.936Z,12.53
2018-12-05T04:39:25.199Z,11.50
2018-12-05T04:42:00.463Z,11.17
2018-12-05T04:44:36.412Z,11.87
2018-12-05T04:47:21.501Z,11.13
2018-12-05T04:49:58.036Z,12.30
2018-12-05T04:55:33.279Z,12.17
2018-12-05T05:01:04.590Z,12.53
2018-12-05T05:03:40.325Z,14.33
2018-12-05T05:09:19.878Z,13.50
2018-12-05T05:11:56.610Z,13.43
2018-12-05T05:14:36.445Z,14.17
2018-12-05T05:17:21.007Z,13.57
2018-12-05T05:20:00.805Z,13.53
2018-12-05T05:34:23.537Z,12.87
2018-12-05T05:37:03.996Z,11.03
2018-12-05T05:39:48.332Z,10.57
2018-12-05T05:42:30.114Z,10.37
2018-12-05T05:48:02.291Z,10.43
2018-12-05T05:50:52.838Z,10.33
2018-12-05T05:59:29.498Z,10.80
2018-12-05T06:04:55.431Z,11.83
2018-12-05T06:07:33.941Z,11.77
2018-12-05T06:18:55.507Z,12.20
2018-12-05T06:21:32.364Z,12.17
2018-12-05T06:24:07.301Z,12.47
2018-12-05T06:52:49.209Z,11.50
2018-12-05T06:55:29.185Z,12.57
2018-12-05T06:58:07.371Z,13.30
2018-12-05T07:00:49.954Z,13.63
2018-12-05T07:14:55.579Z,13.63
2018-12-05T07:17:35.021Z,14.80
2018-12-05T07:20:20.037Z,14.17
2018-12-05T07:25:57.062Z,13.70
2018-12-05T07:28:37.443Z,14.10
2018-12-05T07:31:15.248Z,14.03
2018-12-05T07:33:55.645Z,14.57
2018-12-05T07:36:33.893Z,14.40
2018-12-05T07:39:09.924Z,13.87
2018-12-05T07:41:50.417Z,13.83
2018-12-05T07:50:10.543Z,15.10
2018-12-05T07:52:48.421Z,15.07
2018-12-05T07:55:32.689Z,15.13
2018-12-05T08:01:03.511Z,14.60
2018-12-05T08:03:37.904Z,15.10
2018-12-05T08:06:12.141Z,15.40
2018-12-05T08:08:47.465Z,15.87
2018-12-05T08:11:26.314Z,16.07
2018-12-05T08:14:07.043Z,16.13
2018-12-05T08:16:44.808Z,14.67
2018-12-05T08:19:25.040Z,16.63
2018-12-05T08:22:03.063Z,14.17
2018-12-05T08:24:43.452Z,15.77
2018-12-05T08:27:19.278Z,15.40
2018-12-05T08:30:03.544Z,15.07
2018-12-05T08:35:37.729Z,15.20
2018-12-05T08:38:14.063Z,15.57
2018-12-05T08:40:56.337Z,15.30
2018-12-05T08:43:34.491Z,14.57
2018-12-05T08:46:12.556Z,15.23
2018-12-05T08:48:52.978Z,15.23
2018-12-05T08:54:27.911Z,17.33
2018-12-05T08:57:05.985Z,14.80
2018-12-05T08:59:50.369Z,13.80
2018-12-05T09:02:28.237Z,14.23
2018-12-05T09:05:10.505Z,14.23
2018-12-05T09:07:46.894Z,14.27
2018-12-05T09:10:25.048Z,14.20
2018-12-05T09:13:07.500Z,13.97
2018-12-05T09:15:47.557Z,14.57
2018-12-05T09:18:27.555Z,14.47
2018-12-05T09:27:00.625Z,16.00
2018-12-05T09:29:38.829Z,16.00
2018-12-05T09:32:21.197Z,14.57
2018-12-05T09:34:59.298Z,14.60
2018-12-05T09:40:23.780Z,14.60
2018-12-05T09:48:45.590Z,14.53
2018-12-05T09:54:21.701Z,14.63
2018-12-05T09:56:58.327Z,13.93
2018-12-05T09:59:37.097Z,14.07
2018-12-05T10:05:12.535Z,13.57
2018-12-05T10:07:50.198Z,14.27
2018-12-05T10:10:30.595Z,14.73
2018-12-05T10:13:08.879Z,14.40
2018-12-05T10:15:49.549Z,13.73
2018-12-05T10:18:30.146Z,14.27
2018-12-05T10:24:05.609Z,13.20
2018-12-05T10:26:45.794Z,13.27
2018-12-05T10:29:25.964Z,13.97
2018-12-05T10:32:05.112Z,13.10
2018-12-05T10:34:45.376Z,13.67
2018-12-05T10:37:25.749Z,12.20
2018-12-05T10:40:05.681Z,11.60
2018-12-05T11:00:25.316Z,9.77
2018-12-05T11:03:08.607Z,9.60
2018-12-05T11:17:41.782Z,9.97
2018-12-05T11:20:22.403Z,10.17
2018-12-05T11:23:00.634Z,9.27
2018-12-05T11:25:39.649Z,10.47
2018-12-05T11:28:08.393Z,10.33
2018-12-05T11:30:48.708Z,10.67
2018-12-05T11:33:27.008Z,10.83
2018-12-05T11:36:07.618Z,11.00
2018-12-05T11:38:48.107Z,11.60
2018-12-05T11:41:29.293Z,12.63
2018-12-05T11:44:10.036Z,12.50
2018-12-05T11:46:38.903Z,13.23
2018-12-05T11:49:09.296Z,13.37
2018-12-05T11:51:49.604Z,14.40
2018-12-05T11:54:21.888Z,14.23
2018-12-05T11:56:51.427Z,13.97
2018-12-05T11:59:33.155Z,15.47
2018-12-05T12:02:04.588Z,15.27
2018-12-05T12:04:35.940Z,15.30
2018-12-05T12:10:17.934Z,16.00
2018-12-05T12:12:57.987Z,15.23
2018-12-05T12:21:14.127Z,16.37
2018-12-05T12:23:54.257Z,16.73
2018-12-05T12:32:21.882Z,17.30
2018-12-05T12:35:01.163Z,16.47
2018-12-05T12:49:26.572Z,17.93
2018-12-05T12:55:01.353Z,18.30
2018-12-05T13:09:26.737Z,20.60
2018-12-05T13:17:52.451Z,22.10
2018-12-05T13:20:33.870Z,22.23
2018-12-05T13:26:12.611Z,23.70
2018-12-05T13:29:09.055Z,24.33
2018-12-05T13:31:56.966Z,24.97
2018-12-05T13:40:29.566Z,25.17
2018-12-05T13:45:56.912Z,25.90
2018-12-05T13:48:34.151Z,25.57
2018-12-05T13:54:09.868Z,26.67
2018-12-05T13:56:52.614Z,26.80
2018-12-05T14:08:15.136Z,26.67
2018-12-05T14:22:38.319Z,28.30
2018-12-05T14:25:21.119Z,26.10
2018-12-05T14:45:30.044Z,23.00
2018-12-05T14:48:10.077Z,23.27
2018-12-05T15:58:26.088Z,18.00
2018-12-05T16:06:50.183Z,17.30
2018-12-05T16:09:30.347Z,16.67
2018-12-05T16:12:14.976Z,16.83
2018-12-05T16:14:55.082Z,17.33
2018-12-05T16:17:29.066Z,16.13
2018-12-05T16:26:10.570Z,15.80
2018-12-05T16:28:46.314Z,16.77
2018-12-05T16:31:26.740Z,15.67
2018-12-05T16:34:06.793Z,15.50
2018-12-05T16:36:48.800Z,14.97
2018-12-05T16:42:15.513Z,15.57
2018-12-05T16:45:03.739Z,14.77
2018-12-05T16:47:50.293Z,14.77
2018-12-05T16:50:30.304Z,15.97
2018-12-05T16:53:13.390Z,15.33
2018-12-05T16:55:52.666Z,13.33
2018-12-05T17:04:29.161Z,13.93
2018-12-05T17:38:20.541Z,13.40
2018-12-05T17:52:51.079Z,13.73
2018-12-05T17:56:16.297Z,13.40
2018-12-05T18:13:07.601Z,13.43
2018-12-05T18:15:47.718Z,13.70
2018-12-05T18:18:22.996Z,12.97
2018-12-05T18:23:58.607Z,13.10
2018-12-05T18:26:36.972Z,12.83
2018-12-05T18:40:51.239Z,13.20
2018-12-05T18:46:29.135Z,37.67
2018-12-05T18:52:05.254Z,13.17
2018-12-05T18:54:38.074Z,13.10
2018-12-05T18:57:18.655Z,12.80
2018-12-05T19:00:01.117Z,12.73
2018-12-05T19:17:09.841Z,12.90
2018-12-05T19:19:52.899Z,12.10
2018-12-05T19:22:37.590Z,12.20
2018-12-05T19:33:56.460Z,12.53
2018-12-05T20:00:04.095Z,11.70
2018-12-05T20:02:44.814Z,11.53
2018-12-05T20:05:26.827Z,12.00
2018-12-05T21:50:33.257Z,8.73
2018-12-05T22:07:56.683Z,9.90
2018-12-05T22:13:32.216Z,9.47
2018-12-05T22:24:47.034Z,10.07
2018-12-05T22:27:19.595Z,10.20
2018-12-05T22:29:48.155Z,10.83
2018-12-05T22:32:18.495Z,10.30
2018-12-05T22:34:51.192Z,10.60
2018-12-05T22:41:43.661Z,10.63
2018-12-05T22:44:20.137Z,10.50
2018-12-05T22:46:49.330Z,10.70
2018-12-05T22:49:17.622Z,11.00
2018-12-05T22:51:47.419Z,11.30
2018-12-05T22:54:15.849Z,12.10
2018-12-05T22:56:49.653Z,11.20
2018-12-05T22:59:18.081Z,11.40
2018-12-05T23:01:47.331Z,10.80
2018-12-05T23:04:15.945Z,12.80
2018-12-05T23:06:44.431Z,11.60
2018-12-05T23:09:12.734Z,13.10
2018-12-05T23:11:41.324Z,12.80
2018-12-05T23:14:09.961Z,14.27
2018-12-05T23:16:38.859Z,15.17
2018-12-05T23:19:07.449Z,14.90
2018-12-05T23:21:36.103Z,16.43
2018-12-05T23:24:04.471Z,16.07
2018-12-05T23:26:32.842Z,15.97
2018-12-05T23:29:08.067Z,16.93
2018-12-05T23:31:37.706Z,16.37
2018-12-05T23:34:15.429Z,17.37
2018-12-05T23:36:53.867Z,17.93
2018-12-05T23:39:29.976Z,16.90
2018-12-05T23:45:08.917Z,17.60
2018-12-05T23:47:37.720Z,18.27
2018-12-05T23:50:06.284Z,19.37
2018-12-05T23:55:31.351Z,18.07
2018-12-05T23:57:59.832Z,19.63
